createdAt,value
2023-05-20T00:01:38.777Z,8.32
2023-05-20T00:04:05.728Z,7.90
2023-05-20T00:06:32.448Z,8.30
2023-05-20T00:09:00.344Z,8.45
2023-05-20T00:11:27.113Z,7.93
2023-05-20T00:13:53.625Z,8.27
2023-05-20T00:16:20.145Z,8.10
2023-05-20T00:18:46.706Z,7.55
2023-05-20T00:21:13.407Z,8.30
2023-05-20T00:23:40.127Z,8.13
2023-05-20T00:26:06.655Z,7.97
2023-05-20T00:28:33.230Z,8.50
2023-05-20T00:30:59.758Z,8.20
2023-05-20T00:33:26.285Z,8.30
2023-05-20T00:35:52.826Z,8.60
2023-05-20T00:38:19.371Z,8.13
2023-05-20T00:40:46.078Z,7.88
2023-05-20T00:43:12.755Z,8.00
2023-05-20T00:45:39.885Z,8.43
2023-05-20T00:48:07.009Z,8.48
2023-05-20T00:50:34.026Z,8.30
2023-05-20T00:53:00.810Z,8.60
2023-05-20T00:55:27.449Z,8.70
2023-05-20T00:57:54.484Z,8.43
2023-05-20T01:00:21.085Z,8.35
2023-05-20T01:02:47.861Z,8.45
2023-05-20T01:05:14.498Z,8.27
2023-05-20T01:07:41.522Z,7.78
2023-05-20T01:10:09.481Z,8.10
2023-05-20T01:12:40.522Z,8.10
2023-05-20T01:15:12.463Z,8.20
2023-05-20T01:17:51.943Z,7.80
2023-05-20T01:20:20.686Z,8.75
2023-05-20T01:22:48.486Z,7.95
2023-05-20T01:25:15.235Z,7.63
2023-05-20T01:27:41.906Z,8.20
2023-05-20T01:30:08.927Z,7.95
2023-05-20T01:32:38.664Z,8.25
2023-05-20T01:35:06.669Z,8.25
2023-05-20T01:37:36.487Z,8.30
2023-05-20T01:40:04.243Z,8.43
2023-05-20T01:42:31.099Z,7.93
2023-05-20T01:44:59.200Z,8.48
2023-05-20T01:47:25.888Z,8.52
2023-05-20T01:49:54.689Z,8.85
2023-05-20T01:52:22.129Z,8.38
2023-05-20T01:54:51.212Z,8.13
2023-05-20T01:57:22.190Z,7.88
2023-05-20T01:59:49.251Z,9.80
2023-05-20T02:02:16.425Z,7.90
2023-05-20T02:04:47.831Z,8.68
2023-05-20T02:07:21.391Z,8.40
2023-05-20T02:09:48.221Z,8.10
2023-05-20T02:12:17.717Z,8.68
2023-05-20T02:14:47.959Z,8.10
2023-05-20T02:17:16.690Z,8.57
2023-05-20T02:19:47.348Z,8.23
2023-05-20T02:22:14.560Z,8.10
2023-05-20T02:24:43.185Z,8.85
2023-05-20T02:27:09.826Z,8.02
2023-05-20T02:29:37.027Z,8.20
2023-05-20T02:32:03.793Z,7.97
2023-05-20T02:34:31.568Z,8.05
2023-05-20T02:36:58.237Z,8.32
2023-05-20T02:39:24.777Z,8.45
2023-05-20T02:41:51.325Z,8.88
2023-05-20T02:44:18.265Z,8.38
2023-05-20T02:46:44.797Z,8.70
2023-05-20T02:49:11.489Z,9.20
2023-05-20T02:51:38.035Z,8.93
2023-05-20T02:54:04.641Z,8.43
2023-05-20T02:56:32.546Z,8.40
2023-05-20T02:58:59.151Z,8.85
2023-05-20T03:01:25.858Z,9.55
2023-05-20T03:03:52.575Z,8.43
2023-05-20T03:06:19.173Z,8.80
2023-05-20T03:08:45.721Z,8.73
2023-05-20T03:11:12.280Z,8.15
2023-05-20T03:13:38.874Z,8.45
2023-05-20T03:16:05.661Z,8.27
2023-05-20T03:18:32.247Z,8.77
2023-05-20T03:20:58.803Z,8.18
2023-05-20T03:23:25.349Z,8.30
2023-05-20T03:25:52.083Z,7.63
2023-05-20T03:28:18.598Z,8.48
2023-05-20T03:30:45.140Z,8.32
2023-05-20T03:33:11.985Z,7.85
2023-05-20T03:35:39.545Z,7.85
2023-05-20T03:38:06.400Z,8.10
2023-05-20T03:40:32.996Z,7.90
2023-05-20T03:42:59.528Z,8.18
2023-05-20T03:45:26.205Z,7.65
2023-05-20T03:47:52.771Z,8.00
2023-05-20T03:50:19.468Z,7.82
2023-05-20T03:52:46.023Z,8.10
2023-05-20T03:55:12.680Z,7.90
2023-05-20T03:57:40.569Z,8.30
2023-05-20T04:00:11.762Z,7.70
2023-05-20T04:02:38.713Z,8.30
2023-05-20T04:05:08.615Z,7.78
2023-05-20T04:07:35.871Z,7.85
2023-05-20T04:10:04.029Z,7.88
2023-05-20T04:12:32.242Z,7.88
2023-05-20T04:15:01.360Z,7.32
2023-05-20T04:17:31.399Z,7.13
2023-05-20T04:20:00.059Z,7.13
2023-05-20T04:22:27.000Z,7.47
2023-05-20T04:24:53.550Z,7.90
2023-05-20T04:27:21.508Z,8.25
2023-05-20T04:29:48.209Z,8.52
2023-05-20T04:32:17.380Z,9.05
2023-05-20T04:34:45.206Z,8.23
2023-05-20T04:37:13.222Z,8.70
2023-05-20T04:39:40.388Z,7.95
2023-05-20T04:42:07.117Z,8.57
2023-05-20T04:44:34.403Z,7.90
2023-05-20T04:47:00.960Z,7.75
2023-05-20T04:49:29.237Z,7.72
2023-05-20T04:51:55.782Z,7.88
2023-05-20T04:54:22.622Z,8.18
2023-05-20T04:56:49.285Z,9.27
2023-05-20T04:59:15.846Z,8.93
2023-05-20T05:01:53.671Z,8.23
2023-05-20T05:04:20.429Z,7.80
2023-05-20T05:06:48.766Z,8.05
2023-05-20T05:09:17.611Z,8.07
2023-05-20T05:11:44.210Z,8.20
2023-05-20T05:14:10.884Z,7.82
2023-05-20T05:16:37.357Z,7.72
2023-05-20T05:19:04.225Z,7.57
2023-05-20T05:21:31.551Z,8.32
2023-05-20T05:23:58.524Z,8.88
2023-05-20T05:26:25.194Z,8.10
2023-05-20T05:28:51.821Z,8.00
2023-05-20T05:31:18.363Z,7.97
2023-05-20T05:33:44.855Z,8.23
2023-05-20T05:36:11.416Z,8.40
2023-05-20T05:38:38.028Z,8.30
2023-05-20T05:41:04.600Z,7.90
2023-05-20T05:43:31.619Z,8.13
2023-05-20T05:45:58.175Z,8.10
2023-05-20T05:48:24.713Z,8.10
2023-05-20T05:50:51.467Z,8.90
2023-05-20T05:53:18.089Z,8.10
2023-05-20T05:55:46.550Z,8.20
2023-05-20T05:58:13.136Z,7.63
2023-05-20T06:00:39.723Z,7.85
2023-05-20T06:03:07.284Z,7.97
2023-05-20T06:05:34.156Z,7.78
2023-05-20T06:08:01.117Z,8.35
2023-05-20T06:10:27.640Z,8.15
2023-05-20T06:12:54.190Z,11.68
2023-05-20T06:15:20.854Z,8.45
2023-05-20T06:17:47.455Z,10.00
2023-05-20T06:20:14.225Z,9.18
2023-05-20T06:22:40.880Z,8.23
2023-05-20T06:25:09.329Z,7.70
2023-05-20T06:27:36.222Z,7.75
2023-05-20T06:30:03.146Z,8.02
2023-05-20T06:32:29.768Z,8.82
2023-05-20T06:34:56.373Z,8.80
2023-05-20T06:37:25.520Z,8.23
2023-05-20T06:39:54.047Z,8.63
2023-05-20T06:42:21.570Z,8.32
2023-05-20T06:44:48.313Z,8.57
2023-05-20T06:47:16.445Z,7.90
2023-05-20T06:49:46.485Z,9.18
2023-05-20T06:52:14.039Z,8.80
2023-05-20T06:54:41.604Z,8.77
2023-05-20T06:57:08.850Z,9.10
2023-05-20T06:59:36.113Z,9.00
2023-05-20T07:02:03.747Z,8.98
2023-05-20T07:04:30.444Z,9.35
2023-05-20T07:06:57.165Z,7.80
2023-05-20T07:09:23.794Z,7.78
2023-05-20T07:11:50.625Z,8.10
2023-05-20T07:14:17.375Z,7.82
2023-05-20T07:16:44.054Z,8.38
2023-05-20T07:19:10.824Z,10.90
2023-05-20T07:21:37.480Z,12.30
2023-05-20T07:24:04.284Z,9.15
2023-05-20T07:26:33.635Z,8.98
2023-05-20T07:29:00.380Z,9.30
2023-05-20T07:31:27.236Z,8.32
2023-05-20T07:33:53.918Z,8.82
2023-05-20T07:36:20.941Z,8.65
2023-05-20T07:38:56.925Z,8.90
2023-05-20T07:41:30.026Z,8.02
2023-05-20T07:43:56.834Z,8.50
2023-05-20T07:46:23.437Z,8.02
2023-05-20T07:48:50.027Z,9.00
2023-05-20T07:51:20.961Z,8.75
2023-05-20T07:53:47.616Z,8.32
2023-05-20T07:56:14.364Z,8.82
2023-05-20T07:58:41.847Z,8.50
2023-05-20T08:01:09.619Z,10.93
2023-05-20T08:03:36.848Z,8.93
2023-05-20T08:06:03.728Z,9.20
2023-05-20T08:08:33.245Z,8.30
2023-05-20T08:11:01.692Z,8.45
2023-05-20T08:13:28.301Z,9.35
2023-05-20T08:15:54.981Z,8.15
2023-05-20T08:18:22.169Z,9.02
2023-05-20T08:20:48.979Z,8.98
2023-05-20T08:23:15.703Z,8.43
2023-05-20T08:25:42.412Z,8.70
2023-05-20T08:28:09.090Z,8.70
2023-05-20T08:30:35.694Z,8.00
2023-05-20T08:33:02.545Z,8.40
2023-05-20T08:35:29.321Z,9.05
2023-05-20T08:37:55.949Z,8.35
2023-05-20T08:40:23.205Z,8.88
2023-05-20T08:42:52.628Z,7.90
2023-05-20T08:45:24.058Z,8.75
2023-05-20T08:47:50.800Z,10.02
2023-05-20T08:50:17.479Z,9.07
2023-05-20T08:52:48.296Z,8.82
2023-05-20T08:57:45.842Z,8.65
2023-05-20T09:00:17.125Z,9.23
2023-05-20T09:02:46.209Z,9.02
2023-05-20T09:05:13.128Z,10.75
2023-05-20T09:07:40.056Z,9.70
2023-05-20T09:10:07.127Z,10.80
2023-05-20T09:12:33.747Z,8.82
2023-05-20T09:15:00.326Z,9.50
2023-05-20T09:17:27.379Z,8.90
2023-05-20T09:19:54.329Z,9.45
2023-05-20T09:22:29.065Z,10.10
2023-05-20T09:24:56.040Z,9.07
2023-05-20T09:27:22.670Z,9.30
2023-05-20T09:29:49.453Z,9.82
2023-05-20T09:32:16.384Z,9.93
2023-05-20T09:34:43.337Z,9.32
2023-05-20T09:37:10.274Z,9.45
2023-05-20T09:39:59.619Z,9.38
2023-05-20T09:42:35.506Z,9.60
2023-05-20T09:45:04.217Z,9.07
2023-05-20T09:47:31.580Z,9.63
2023-05-20T09:49:58.495Z,9.63
2023-05-20T09:52:26.923Z,9.88
2023-05-20T09:54:54.063Z,9.88
2023-05-20T09:57:20.677Z,11.60
2023-05-20T09:59:48.143Z,10.63
2023-05-20T10:02:14.739Z,10.13
2023-05-20T10:04:45.281Z,10.63
2023-05-20T10:07:47.778Z,9.32
2023-05-20T10:10:27.086Z,9.70
2023-05-20T10:13:06.330Z,9.45
2023-05-20T10:16:04.012Z,9.65
2023-05-20T10:19:01.847Z,9.13
2023-05-20T10:21:28.628Z,8.88
2023-05-20T10:24:06.523Z,9.55
2023-05-20T10:26:41.572Z,10.38
2023-05-20T10:29:15.792Z,9.43
2023-05-20T10:31:52.029Z,9.85
2023-05-20T10:34:20.413Z,8.77
2023-05-20T10:36:56.105Z,9.80
2023-05-20T10:39:29.986Z,8.15
2023-05-20T10:42:30.592Z,9.05
2023-05-20T10:44:57.145Z,9.25
2023-05-20T10:47:26.050Z,8.90
2023-05-20T10:49:53.269Z,8.70
2023-05-20T10:52:20.680Z,9.10
2023-05-20T10:54:55.052Z,8.85
2023-05-20T10:57:21.805Z,9.00
2023-05-20T10:59:48.564Z,9.15
2023-05-20T11:02:18.811Z,8.75
2023-05-20T11:04:46.777Z,8.77
2023-05-20T11:07:13.458Z,9.75
2023-05-20T11:09:40.044Z,8.68
2023-05-20T11:12:06.835Z,9.70
2023-05-20T11:14:33.400Z,9.48
2023-05-20T11:17:00.502Z,8.82
2023-05-20T11:19:27.941Z,9.00
2023-05-20T11:21:54.681Z,8.02
2023-05-20T11:24:28.255Z,8.48
2023-05-20T11:26:56.211Z,8.82
2023-05-20T11:29:23.231Z,8.98
2023-05-20T11:31:53.174Z,9.25
2023-05-20T11:34:23.984Z,9.18
2023-05-20T11:36:58.773Z,8.80
2023-05-20T11:39:27.590Z,8.70
2023-05-20T11:41:54.262Z,9.65
2023-05-20T11:44:21.266Z,8.60
2023-05-20T11:46:48.666Z,7.97
2023-05-20T11:49:15.772Z,7.88
2023-05-20T11:51:43.353Z,8.63
2023-05-20T11:54:10.704Z,8.43
2023-05-20T11:56:38.308Z,8.93
2023-05-20T11:59:06.558Z,8.45
2023-05-20T12:01:37.767Z,8.48
2023-05-20T12:04:08.500Z,9.07
2023-05-20T12:06:37.143Z,8.40
2023-05-20T12:09:08.839Z,7.63
2023-05-20T12:11:37.286Z,7.93
2023-05-20T12:14:04.249Z,7.95
2023-05-20T12:16:35.657Z,7.88
2023-05-20T12:19:02.880Z,7.63
2023-05-20T12:21:29.970Z,7.43
2023-05-20T12:23:59.370Z,8.13
2023-05-20T12:26:27.378Z,7.47
2023-05-20T12:28:54.580Z,7.88
2023-05-20T12:31:21.347Z,7.72
2023-05-20T12:33:47.952Z,7.78
2023-05-20T12:36:14.923Z,7.35
2023-05-20T12:38:41.471Z,7.25
2023-05-20T12:41:08.105Z,7.38
2023-05-20T12:43:37.053Z,7.18
2023-05-20T12:49:04.647Z,7.68
2023-05-20T12:51:31.546Z,8.00
2023-05-20T12:53:58.127Z,7.65
2023-05-20T12:56:26.452Z,7.90
2023-05-20T12:58:53.033Z,7.55
2023-05-20T13:01:21.698Z,6.95
2023-05-20T13:03:52.972Z,7.68
2023-05-20T13:06:19.567Z,7.32
2023-05-20T13:08:46.157Z,7.57
2023-05-20T13:11:13.112Z,7.97
2023-05-20T13:13:39.635Z,6.88
2023-05-20T13:16:06.458Z,6.90
2023-05-20T13:18:32.996Z,8.13
2023-05-20T13:20:59.544Z,8.52
2023-05-20T13:23:26.196Z,8.20
2023-05-20T13:25:52.930Z,6.95
2023-05-20T13:28:20.822Z,7.50
2023-05-20T13:30:47.440Z,7.28
2023-05-20T13:33:14.240Z,8.90
2023-05-20T13:35:43.659Z,8.55
2023-05-20T13:38:10.384Z,7.85
2023-05-20T13:40:37.012Z,7.25
2023-05-20T13:43:03.580Z,7.80
2023-05-20T13:45:30.217Z,7.70
2023-05-20T13:47:56.885Z,9.52
2023-05-20T13:50:35.783Z,7.85
2023-05-20T13:53:02.913Z,8.00
2023-05-20T13:55:29.588Z,6.90
2023-05-20T13:58:01.749Z,6.80
2023-05-20T14:00:28.610Z,7.45
2023-05-20T14:02:55.418Z,8.10
2023-05-20T14:05:29.740Z,7.90
2023-05-20T14:07:56.429Z,7.30
2023-05-20T14:10:23.090Z,7.15
2023-05-20T14:12:49.885Z,7.63
2023-05-20T14:15:16.482Z,9.45
2023-05-20T14:17:43.287Z,7.63
2023-05-20T14:20:13.377Z,7.40
2023-05-20T14:22:40.042Z,7.60
2023-05-20T14:25:07.053Z,7.32
2023-05-20T14:27:34.544Z,8.07
2023-05-20T14:30:01.314Z,8.30
2023-05-20T14:32:28.612Z,9.00
2023-05-20T14:34:55.487Z,18.05
2023-05-20T14:37:22.981Z,36.35
2023-05-20T14:39:49.660Z,21.80
2023-05-20T14:42:16.773Z,11.80
2023-05-20T14:44:43.428Z,8.98
2023-05-20T14:47:10.274Z,12.65
2023-05-20T14:49:39.164Z,21.95
2023-05-20T14:52:07.657Z,9.75
2023-05-20T14:54:34.272Z,8.25
2023-05-20T14:57:01.095Z,8.70
2023-05-20T14:59:27.694Z,13.13
2023-05-20T15:01:54.254Z,31.40
2023-05-20T15:04:20.931Z,68.30
2023-05-20T15:06:47.526Z,71.18
2023-05-20T15:09:14.247Z,52.90
2023-05-20T15:11:40.803Z,21.48
2023-05-20T15:14:07.520Z,12.68
2023-05-20T15:16:34.046Z,9.38
2023-05-20T15:19:01.052Z,33.42
2023-05-20T15:21:27.762Z,77.88
2023-05-20T15:23:54.344Z,35.45
2023-05-20T15:26:21.769Z,74.82
2023-05-20T15:28:48.425Z,36.42
2023-05-20T15:31:14.939Z,11.98
2023-05-20T15:33:41.624Z,17.40
2023-05-20T15:36:08.330Z,14.05
2023-05-20T15:38:34.901Z,14.45
2023-05-20T15:41:02.192Z,10.30
2023-05-20T15:43:28.794Z,9.25
2023-05-20T15:45:55.393Z,9.85
2023-05-20T15:48:22.492Z,8.55
2023-05-20T15:50:49.111Z,8.60
2023-05-20T15:53:16.074Z,8.75
2023-05-20T15:55:43.008Z,8.60
2023-05-20T15:58:10.836Z,8.80
2023-05-20T16:00:37.626Z,8.85
2023-05-20T16:03:04.393Z,9.02
2023-05-20T16:05:31.267Z,9.35
2023-05-20T16:07:58.040Z,9.27
2023-05-20T16:10:26.129Z,8.63
2023-05-20T16:12:52.894Z,9.23
2023-05-20T16:15:19.474Z,8.70
2023-05-20T16:17:46.094Z,9.15
2023-05-20T16:20:12.739Z,8.60
2023-05-20T16:22:39.331Z,9.18
2023-05-20T16:25:06.296Z,8.75
2023-05-20T16:27:32.822Z,8.95
2023-05-20T16:29:59.529Z,9.07
2023-05-20T16:32:27.074Z,9.23
2023-05-20T16:34:54.827Z,8.00
2023-05-20T16:37:21.628Z,8.50
2023-05-20T16:39:48.176Z,8.55
2023-05-20T16:42:14.761Z,8.73
2023-05-20T16:44:41.510Z,8.07
2023-05-20T16:47:08.962Z,8.20
2023-05-20T16:49:36.021Z,8.35
2023-05-20T16:52:02.857Z,8.65
2023-05-20T16:54:29.543Z,8.98
2023-05-20T16:56:56.547Z,7.90
2023-05-20T16:59:28.498Z,7.88
2023-05-20T17:01:55.141Z,9.23
2023-05-20T17:04:21.841Z,8.35
2023-05-20T17:06:50.169Z,8.38
2023-05-20T17:09:16.722Z,8.18
2023-05-20T17:11:43.713Z,8.68
2023-05-20T17:14:10.472Z,9.90
2023-05-20T17:16:37.391Z,9.43
2023-05-20T17:19:03.994Z,8.65
2023-05-20T17:21:31.287Z,8.65
2023-05-20T17:23:57.899Z,8.50
2023-05-20T17:26:24.479Z,8.50
2023-05-20T17:28:50.998Z,8.70
2023-05-20T17:31:17.697Z,7.68
2023-05-20T17:33:44.344Z,8.52
2023-05-20T17:36:11.242Z,9.13
2023-05-20T17:38:38.511Z,9.38
2023-05-20T17:41:05.037Z,8.40
2023-05-20T17:43:31.624Z,8.30
2023-05-20T17:45:58.248Z,7.93
2023-05-20T17:48:24.827Z,8.80
2023-05-20T17:50:51.361Z,8.55
2023-05-20T17:53:20.276Z,8.18
2023-05-20T17:55:49.495Z,9.05
2023-05-20T17:58:17.018Z,9.07
2023-05-20T18:00:43.763Z,8.75
2023-05-20T18:03:10.577Z,8.85
2023-05-20T18:05:37.486Z,8.60
2023-05-20T18:08:04.203Z,9.02
2023-05-20T18:10:30.841Z,9.77
2023-05-20T18:12:57.372Z,9.50
2023-05-20T18:15:23.958Z,8.70
2023-05-20T18:17:50.634Z,9.25
2023-05-20T18:20:17.224Z,9.20
2023-05-20T18:22:46.602Z,9.10
2023-05-20T18:25:14.192Z,9.18
2023-05-20T18:27:41.739Z,9.15
2023-05-20T18:30:09.436Z,9.20
2023-05-20T18:32:36.385Z,13.45
2023-05-20T18:35:03.241Z,11.50
2023-05-20T18:37:29.806Z,11.25
2023-05-20T18:39:59.252Z,11.20
2023-05-20T18:42:26.027Z,9.65
2023-05-20T18:44:52.980Z,10.10
2023-05-20T18:47:19.740Z,9.65
2023-05-20T18:49:46.380Z,10.10
2023-05-20T18:52:13.108Z,11.25
2023-05-20T18:54:39.654Z,10.02
2023-05-20T18:57:08.017Z,12.13
2023-05-20T18:59:34.651Z,11.30
2023-05-20T19:02:01.542Z,10.18
2023-05-20T19:04:28.140Z,10.13
2023-05-20T19:06:54.851Z,10.55
2023-05-20T19:09:21.670Z,10.50
2023-05-20T19:11:48.303Z,10.15
2023-05-20T19:14:14.870Z,10.45
2023-05-20T19:16:41.704Z,10.25
2023-05-20T19:19:08.530Z,10.30
2023-05-20T19:21:35.183Z,11.13
2023-05-20T19:24:02.008Z,11.23
2023-05-20T19:26:28.608Z,10.10
2023-05-20T19:28:55.337Z,11.25
2023-05-20T19:31:22.099Z,10.95
2023-05-20T19:33:49.132Z,11.27
2023-05-20T19:36:15.936Z,11.32
2023-05-20T19:38:43.215Z,10.70
2023-05-20T19:41:13.378Z,11.75
2023-05-20T19:43:40.179Z,11.90
2023-05-20T19:46:06.760Z,11.35
2023-05-20T19:48:33.923Z,12.00
2023-05-20T19:51:01.637Z,12.63
2023-05-20T19:53:28.225Z,12.38
2023-05-20T19:55:54.989Z,11.80
2023-05-20T19:58:22.560Z,11.88
2023-05-20T20:00:49.358Z,11.20
2023-05-20T20:03:15.947Z,11.35
2023-05-20T20:05:42.679Z,11.77
2023-05-20T20:08:09.362Z,11.02
2023-05-20T20:10:37.634Z,11.57
2023-05-20T20:13:04.438Z,11.13
2023-05-20T20:15:32.019Z,10.82
2023-05-20T20:17:59.196Z,11.82
2023-05-20T20:20:26.926Z,11.32
2023-05-20T20:22:53.505Z,12.13
2023-05-20T20:25:20.483Z,11.10
2023-05-20T20:27:48.642Z,11.85
2023-05-20T20:30:15.572Z,11.73
2023-05-20T20:32:42.395Z,12.07
2023-05-20T20:35:09.540Z,12.63
2023-05-20T20:37:37.919Z,13.65
2023-05-20T20:40:13.615Z,12.48
2023-05-20T20:42:41.736Z,13.90
2023-05-20T20:45:08.828Z,12.85
2023-05-20T20:47:38.669Z,12.73
2023-05-20T20:50:05.964Z,12.43
2023-05-20T20:52:32.528Z,13.93
2023-05-20T20:54:59.193Z,13.40
2023-05-20T20:57:26.776Z,12.55
2023-05-20T20:59:57.675Z,13.13
2023-05-20T21:02:24.662Z,13.43
2023-05-20T21:04:51.232Z,13.07
2023-05-20T21:07:18.244Z,13.07
2023-05-20T21:09:45.806Z,12.65
2023-05-20T21:12:12.476Z,14.35
2023-05-20T21:14:39.213Z,13.10
2023-05-20T21:17:05.892Z,12.88
2023-05-20T21:19:32.470Z,13.05
2023-05-20T21:21:59.173Z,13.00
2023-05-20T21:24:25.730Z,14.68
2023-05-20T21:26:52.342Z,13.13
2023-05-20T21:29:18.835Z,12.45
2023-05-20T21:31:45.444Z,13.15
2023-05-20T21:34:12.068Z,14.43
2023-05-20T21:36:38.650Z,13.75
2023-05-20T21:39:05.518Z,14.82
2023-05-20T21:41:32.036Z,13.23
2023-05-20T21:43:58.741Z,15.18
2023-05-20T21:46:25.460Z,13.75
2023-05-20T21:48:52.137Z,13.63
2023-05-20T21:51:18.784Z,14.38
2023-05-20T21:53:45.812Z,13.75
2023-05-20T21:56:12.515Z,13.45
2023-05-20T21:58:41.788Z,13.65
2023-05-20T22:01:09.832Z,13.85
2023-05-20T22:03:36.884Z,14.75
2023-05-20T22:06:05.035Z,14.82
2023-05-20T22:08:33.707Z,14.77
2023-05-20T22:11:05.369Z,13.32
2023-05-20T22:13:33.219Z,14.95
2023-05-20T22:16:01.517Z,13.98
2023-05-20T22:18:29.182Z,15.20
2023-05-20T22:20:56.257Z,13.90
2023-05-20T22:23:22.795Z,14.07
2023-05-20T22:25:49.332Z,14.13
2023-05-20T22:28:16.830Z,14.18
2023-05-20T22:30:43.792Z,14.57
2023-05-20T22:33:11.634Z,13.23
2023-05-20T22:35:38.232Z,13.75
2023-05-20T22:38:04.933Z,13.48
2023-05-20T22:40:31.487Z,13.68
2023-05-20T22:42:58.069Z,13.95
2023-05-20T22:45:24.689Z,14.18
2023-05-20T22:47:51.289Z,13.30
2023-05-20T22:50:18.220Z,14.15
2023-05-20T22:52:44.797Z,14.02
2023-05-20T22:55:12.060Z,13.35
2023-05-20T22:57:39.108Z,14.52
2023-05-20T23:00:07.889Z,14.70
2023-05-20T23:02:35.119Z,14.65
2023-05-20T23:05:03.927Z,14.77
2023-05-20T23:07:31.229Z,15.18
2023-05-20T23:09:57.825Z,14.32
2023-05-20T23:12:24.384Z,15.07
2023-05-20T23:14:51.658Z,14.60
2023-05-20T23:17:18.237Z,13.93
2023-05-20T23:19:45.091Z,15.15
2023-05-20T23:22:11.914Z,14.00
2023-05-20T23:24:38.446Z,15.07
2023-05-20T23:27:06.403Z,14.15
2023-05-20T23:29:32.975Z,14.90
2023-05-20T23:31:59.461Z,13.75
2023-05-20T23:34:27.434Z,15.07
2023-05-20T23:36:53.981Z,14.82
2023-05-20T23:39:20.974Z,16.30
2023-05-20T23:41:47.505Z,15.48
2023-05-20T23:44:14.245Z,14.48
2023-05-20T23:46:41.838Z,15.05
2023-05-20T23:49:10.116Z,15.02
2023-05-20T23:51:36.711Z,14.05
2023-05-20T23:54:04.018Z,15.13
2023-05-20T23:56:30.555Z,14.90
2023-05-20T23:58:57.894Z,13.82
